Hhl Rio De Janeiro — D5AU2 — position and weather

sailwx.info

Track history (hours):
 
Tides and Currents Weather Stations Pressure Air Temp Water Temp Dewpoint Dewpoint Depression Visibility Wind Speed Wind Dir Waves Ship Positions

Hhl Rio De Janeiro

Last reported at 2016-Jul-02 01:33 UTC. Time now 2016-Jul-02 02:11 UTC.
Position N 49°45' W 000°52'.

Length 168 m; draft 6.8 m.

Type: Cargo ship. MMSI: 636092346.

Date/timePositionNaut miles runAvg speedWind from/ knotsBaromVisibWave heightAir tempDewpointWater temp
2016-Jul-02 01:33N 49°45' W 000°52'1111.0
2016-Jul-02 00:34N 49°50' W 001°07'7911.3
2016-Jul-01 17:33N 49°41' W 003°09'7714.3
2016-Jul-01 12:08N 49°03' W 004°52'814.1
2016-Jul-01 11:33N 48°59' W 005°03'1413.7
2016-Jul-01 10:33N 48°52' W 005°21'58811.9
2016-Jun-29 09:20N 39°53' W 010°47'910.9
2016-Jun-29 08:32N 39°44' W 010°50'1111.0
2016-Jun-29 07:33N 39°34' W 010°54'1110.7
2016-Jun-29 06:33N 39°24' W 010°58'1110.5
2016-Jun-29 05:33N 39°14' W 011°02'1110.6
2016-Jun-29 04:33N 39°04' W 011°06'1210.5
2016-Jun-29 03:24N 38°52' W 011°10'910.3
2016-Jun-29 02:29N 38°43' W 011°13'1010.4
2016-Jun-29 01:33N 38°33' W 011°17'1010.4
2016-Jun-29 00:33N 38°24' W 011°20'1010.2
2016-Jun-28 23:32N 38°14' W 011°24'1210.1
2016-Jun-28 22:21N 38°02' W 011°29'910.1
2016-Jun-28 21:25N 37°53' W 011°32'8 9.8
2016-Jun-28 20:33N 37°45' W 011°35'10 9.3
2016-Jun-28 19:28N 37°35' W 011°38'8 9.3
2016-Jun-28 18:33N 37°27' W 011°41'10 9.3
2016-Jun-28 17:32N 37°18' W 011°44'10 9.5
2016-Jun-28 16:29N 37°08' W 011°48'79 9.7
2016-Jun-28 08:20N 35°53' W 012°15'8 9.8
2016-Jun-28 07:33N 35°45' W 012°18'1010.0
2016-Jun-28 06:33N 35°36' W 012°21'2110.4
2016-Jun-28 04:33N 35°16' W 012°28'1310.6
2016-Jun-28 03:20N 35°03' W 012°32'810.6
2016-Jun-28 02:33N 34°55' W 012°35'1110.7
2016-Jun-28 01:33N 34°45' W 012°38'38211.2
2016-Jun-26 15:30N 28°38' W 014°44'2711.3
2016-Jun-26 13:06N 28°12' W 014°54'610.3
2016-Jun-26 12:32N 28°09' W 014°59'1311.0
2016-Jun-26 11:19N 28°07' W 015°14'911.3
2016-Jun-26 10:33N 28°07' W 015°24'1 1.0
2016-Jun-26 09:31N 28°07' W 015°25'0 0.0
2016-Jun-26 08:31N 28°07' W 015°25'0 0.0
2016-Jun-26 07:31N 28°07' W 015°25'0 0.0
2016-Jun-26 06:34N 28°07' W 015°25'2 1.5
2016-Jun-26 05:33N 28°06' W 015°24'0 0.2
2016-Jun-26 04:31N 28°06' W 015°24'0 0.0
2016-Jun-26 03:31N 28°06' W 015°24'0 0.0
2016-Jun-26 02:28N 28°06' W 015°24'0 0.0
2016-Jun-26 01:31N 28°06' W 015°24'0 0.0
2016-Jun-26 00:31N 28°06' W 015°24'0 0.0
2016-Jun-25 23:31N 28°06' W 015°24'0 0.0
2016-Jun-25 22:31N 28°06' W 015°24'0 0.0
2016-Jun-25 21:31N 28°06' W 015°24'0 0.0
2016-Jun-25 20:31N 28°06' W 015°24'0 0.0
2016-Jun-25 19:31N 28°06' W 015°24'0 0.0
2016-Jun-25 18:31N 28°06' W 015°24'0 0.0
2016-Jun-25 17:31N 28°06' W 015°24'0 0.0
2016-Jun-25 16:31N 28°06' W 015°24'0 0.0
2016-Jun-25 15:31N 28°06' W 015°24'0 0.0
2016-Jun-25 14:31N 28°06' W 015°24'0 0.0
2016-Jun-25 13:31N 28°06' W 015°24'0 0.0
2016-Jun-25 12:31N 28°06' W 015°24'0 0.0
2016-Jun-25 11:31N 28°06' W 015°24'0 0.0
2016-Jun-25 10:31N 28°06' W 015°24'0 0.0
2016-Jun-25 09:31N 28°06' W 015°24'1 1.1
2016-Jun-25 08:33N 28°06' W 015°23'3 2.8
2016-Jun-25 07:33N 28°06' W 015°20'10 9.5
2016-Jun-25 06:33N 28°04' W 015°09'1010.1
2016-Jun-25 05:34N 28°01' W 014°58'2411.0
2016-Jun-25 03:21N 27°38' W 015°08'1910.6
2016-Jun-25 01:32N 27°21' W 015°18'1311.0
2016-Jun-25 00:21N 27°10' W 015°25'  
Track history (hours):
 
Tides and Currents Weather Stations Pressure Air Temp Water Temp Dewpoint Dewpoint Depression Visibility Wind Speed Wind Dir Waves Ship Positions

Hhl Rio De Janeiro

Last reported at 2016-Jul-02 01:33 UTC. Time now 2016-Jul-02 02:11 UTC.
Position N 49°45' W 000°52'.

Length 168 m; draft 6.8 m.

Type: Cargo ship. MMSI: 636092346.

Date/timePositionNaut miles runAvg speedWind from/ knotsBaromVisibWave heightAir tempDewpointWater temp
2016-Jul-02 01:33N 49°45' W 000°52'1111.0
2016-Jul-02 00:34N 49°50' W 001°07'7911.3
2016-Jul-01 17:33N 49°41' W 003°09'7714.3
2016-Jul-01 12:08N 49°03' W 004°52'814.1
2016-Jul-01 11:33N 48°59' W 005°03'1413.7
2016-Jul-01 10:33N 48°52' W 005°21'58811.9
2016-Jun-29 09:20N 39°53' W 010°47'910.9
2016-Jun-29 08:32N 39°44' W 010°50'1111.0
2016-Jun-29 07:33N 39°34' W 010°54'1110.7
2016-Jun-29 06:33N 39°24' W 010°58'1110.5
2016-Jun-29 05:33N 39°14' W 011°02'1110.6
2016-Jun-29 04:33N 39°04' W 011°06'1210.5
2016-Jun-29 03:24N 38°52' W 011°10'910.3
2016-Jun-29 02:29N 38°43' W 011°13'1010.4
2016-Jun-29 01:33N 38°33' W 011°17'1010.4
2016-Jun-29 00:33N 38°24' W 011°20'1010.2
2016-Jun-28 23:32N 38°14' W 011°24'1210.1
2016-Jun-28 22:21N 38°02' W 011°29'910.1
2016-Jun-28 21:25N 37°53' W 011°32'8 9.8
2016-Jun-28 20:33N 37°45' W 011°35'10 9.3
2016-Jun-28 19:28N 37°35' W 011°38'8 9.3
2016-Jun-28 18:33N 37°27' W 011°41'10 9.3
2016-Jun-28 17:32N 37°18' W 011°44'10 9.5
2016-Jun-28 16:29N 37°08' W 011°48'79 9.7
2016-Jun-28 08:20N 35°53' W 012°15'8 9.8
2016-Jun-28 07:33N 35°45' W 012°18'1010.0
2016-Jun-28 06:33N 35°36' W 012°21'2110.4
2016-Jun-28 04:33N 35°16' W 012°28'1310.6
2016-Jun-28 03:20N 35°03' W 012°32'810.6
2016-Jun-28 02:33N 34°55' W 012°35'1110.7
2016-Jun-28 01:33N 34°45' W 012°38'38211.2
2016-Jun-26 15:30N 28°38' W 014°44'2711.3
2016-Jun-26 13:06N 28°12' W 014°54'610.3
2016-Jun-26 12:32N 28°09' W 014°59'1311.0
2016-Jun-26 11:19N 28°07' W 015°14'911.3
2016-Jun-26 10:33N 28°07' W 015°24'1 1.0
2016-Jun-26 09:31N 28°07' W 015°25'0 0.0
2016-Jun-26 08:31N 28°07' W 015°25'0 0.0
2016-Jun-26 07:31N 28°07' W 015°25'0 0.0
2016-Jun-26 06:34N 28°07' W 015°25'2 1.5
2016-Jun-26 05:33N 28°06' W 015°24'0 0.2
2016-Jun-26 04:31N 28°06' W 015°24'0 0.0
2016-Jun-26 03:31N 28°06' W 015°24'0 0.0
2016-Jun-26 02:28N 28°06' W 015°24'0 0.0
2016-Jun-26 01:31N 28°06' W 015°24'0 0.0
2016-Jun-26 00:31N 28°06' W 015°24'0 0.0
2016-Jun-25 23:31N 28°06' W 015°24'0 0.0
2016-Jun-25 22:31N 28°06' W 015°24'0 0.0
2016-Jun-25 21:31N 28°06' W 015°24'0 0.0
2016-Jun-25 20:31N 28°06' W 015°24'0 0.0
2016-Jun-25 19:31N 28°06' W 015°24'0 0.0
2016-Jun-25 18:31N 28°06' W 015°24'0 0.0
2016-Jun-25 17:31N 28°06' W 015°24'0 0.0
2016-Jun-25 16:31N 28°06' W 015°24'0 0.0
2016-Jun-25 15:31N 28°06' W 015°24'0 0.0
2016-Jun-25 14:31N 28°06' W 015°24'0 0.0
2016-Jun-25 13:31N 28°06' W 015°24'0 0.0
2016-Jun-25 12:31N 28°06' W 015°24'0 0.0
2016-Jun-25 11:31N 28°06' W 015°24'0 0.0
2016-Jun-25 10:31N 28°06' W 015°24'0 0.0
2016-Jun-25 09:31N 28°06' W 015°24'1 1.1
2016-Jun-25 08:33N 28°06' W 015°23'3 2.8
2016-Jun-25 07:33N 28°06' W 015°20'10 9.5
2016-Jun-25 06:33N 28°04' W 015°09'1010.1
2016-Jun-25 05:34N 28°01' W 014°58'2411.0
2016-Jun-25 03:21N 27°38' W 015°08'1910.6
2016-Jun-25 01:32N 27°21' W 015°18'1311.0
2016-Jun-25 00:21N 27°10' W 015°25'  

Dump ship's entire track history